sensor_id;sensor_type;location;lat;lon;timestamp;temperature;humidity
2042;DHT22;1026;51.460;7.252;2023-03-03T00:01:54;2.90;91.30
2042;DHT22;1026;51.460;7.252;2023-03-03T00:04:19;2.90;91.30
2042;DHT22;1026;51.460;7.252;2023-03-03T00:06:45;2.90;91.30
2042;DHT22;1026;51.460;7.252;2023-03-03T00:09:11;2.90;91.30
2042;DHT22;1026;51.460;7.252;2023-03-03T00:11:36;2.80;91.30
2042;DHT22;1026;51.460;7.252;2023-03-03T00:14:02;2.90;91.30
2042;DHT22;1026;51.460;7.252;2023-03-03T00:16:33;2.90;91.40
2042;DHT22;1026;51.460;7.252;2023-03-03T00:19:00;2.90;91.40
2042;DHT22;1026;51.460;7.252;2023-03-03T00:21:31;2.90;91.40
2042;DHT22;1026;51.460;7.252;2023-03-03T00:26:39;2.90;91.40
2042;DHT22;1026;51.460;7.252;2023-03-03T00:29:29;2.80;91.40
2042;DHT22;1026;51.460;7.252;2023-03-03T00:34:43;2.90;91.40
2042;DHT22;1026;51.460;7.252;2023-03-03T00:37:32;2.80;91.40
2042;DHT22;1026;51.460;7.252;2023-03-03T00:42:55;2.80;91.40
2042;DHT22;1026;51.460;7.252;2023-03-03T00:45:28;2.80;91.40
2042;DHT22;1026;51.460;7.252;2023-03-03T00:47:54;2.80;91.40
2042;DHT22;1026;51.460;7.252;2023-03-03T00:50:27;2.80;91.40
2042;DHT22;1026;51.460;7.252;2023-03-03T00:53:00;2.80;91.40
2042;DHT22;1026;51.460;7.252;2023-03-03T00:55:27;2.80;91.40
2042;DHT22;1026;51.460;7.252;2023-03-03T00:57:53;2.90;91.40
2042;DHT22;1026;51.460;7.252;2023-03-03T01:00:19;2.80;91.40
2042;DHT22;1026;51.460;7.252;2023-03-03T01:02:44;2.80;91.40
2042;DHT22;1026;51.460;7.252;2023-03-03T01:05:13;2.80;91.40
2042;DHT22;1026;51.460;7.252;2023-03-03T01:07:39;2.70;91.40
2042;DHT22;1026;51.460;7.252;2023-03-03T01:10:05;2.80;91.40
2042;DHT22;1026;51.460;7.252;2023-03-03T01:12:31;2.80;91.40
2042;DHT22;1026;51.460;7.252;2023-03-03T01:14:57;2.70;91.40
2042;DHT22;1026;51.460;7.252;2023-03-03T01:17:22;2.80;91.40
2042;DHT22;1026;51.460;7.252;2023-03-03T01:19:48;2.80;91.40
2042;DHT22;1026;51.460;7.252;2023-03-03T01:22:14;2.80;91.40
2042;DHT22;1026;51.460;7.252;2023-03-03T01:24:39;2.80;91.40
2042;DHT22;1026;51.460;7.252;2023-03-03T01:27:05;2.80;91.40
2042;DHT22;1026;51.460;7.252;2023-03-03T01:29:30;2.80;91.40
2042;DHT22;1026;51.460;7.252;2023-03-03T01:31:56;2.80;91.50
2042;DHT22;1026;51.460;7.252;2023-03-03T01:34:22;2.80;91.50
2042;DHT22;1026;51.460;7.252;2023-03-03T01:36:47;2.80;91.40
2042;DHT22;1026;51.460;7.252;2023-03-03T01:39:13;2.80;91.40
2042;DHT22;1026;51.460;7.252;2023-03-03T01:41:39;2.80;91.40
2042;DHT22;1026;51.460;7.252;2023-03-03T01:44:04;2.80;91.40
2042;DHT22;1026;51.460;7.252;2023-03-03T01:46:47;2.80;91.50
2042;DHT22;1026;51.460;7.252;2023-03-03T01:49:33;2.80;91.50
2042;DHT22;1026;51.460;7.252;2023-03-03T01:52:03;2.70;91.40
2042;DHT22;1026;51.460;7.252;2023-03-03T01:54:35;2.80;91.50
2042;DHT22;1026;51.460;7.252;2023-03-03T01:57:05;2.80;91.50
2042;DHT22;1026;51.460;7.252;2023-03-03T01:59:34;2.80;91.50
2042;DHT22;1026;51.460;7.252;2023-03-03T02:02:02;2.80;91.50
2042;DHT22;1026;51.460;7.252;2023-03-03T02:04:28;2.80;91.50
2042;DHT22;1026;51.460;7.252;2023-03-03T02:06:57;2.80;91.50
2042;DHT22;1026;51.460;7.252;2023-03-03T02:10:13;2.60;91.40
2042;DHT22;1026;51.460;7.252;2023-03-03T02:15:20;2.80;91.50
2042;DHT22;1026;51.460;7.252;2023-03-03T02:17:47;2.80;91.50
2042;DHT22;1026;51.460;7.252;2023-03-03T02:22:53;2.80;91.50
2042;DHT22;1026;51.460;7.252;2023-03-03T02:25:30;2.80;91.50
2042;DHT22;1026;51.460;7.252;2023-03-03T02:27:59;2.80;91.50
2042;DHT22;1026;51.460;7.252;2023-03-03T02:30:25;2.80;91.60
2042;DHT22;1026;51.460;7.252;2023-03-03T02:32:51;2.80;91.60
2042;DHT22;1026;51.460;7.252;2023-03-03T02:37:50;2.80;91.50
2042;DHT22;1026;51.460;7.252;2023-03-03T02:40:20;2.80;91.50
2042;DHT22;1026;51.460;7.252;2023-03-03T02:42:49;2.80;91.60
2042;DHT22;1026;51.460;7.252;2023-03-03T02:45:16;2.80;91.60
2042;DHT22;1026;51.460;7.252;2023-03-03T02:47:49;2.80;91.50
2042;DHT22;1026;51.460;7.252;2023-03-03T02:50:15;2.80;91.60
2042;DHT22;1026;51.460;7.252;2023-03-03T02:52:41;2.80;91.60
2042;DHT22;1026;51.460;7.252;2023-03-03T02:55:07;2.80;91.60
2042;DHT22;1026;51.460;7.252;2023-03-03T02:57:33;2.80;91.60
2042;DHT22;1026;51.460;7.252;2023-03-03T02:59:58;2.80;91.60
2042;DHT22;1026;51.460;7.252;2023-03-03T03:02:24;2.80;91.60
2042;DHT22;1026;51.460;7.252;2023-03-03T03:04:51;2.80;91.50
2042;DHT22;1026;51.460;7.252;2023-03-03T03:07:17;2.80;91.60
2042;DHT22;1026;51.460;7.252;2023-03-03T03:09:42;2.80;91.60
2042;DHT22;1026;51.460;7.252;2023-03-03T03:12:08;2.80;91.60
2042;DHT22;1026;51.460;7.252;2023-03-03T03:14:34;2.80;91.60
2042;DHT22;1026;51.460;7.252;2023-03-03T03:17:00;2.80;91.60
2042;DHT22;1026;51.460;7.252;2023-03-03T03:19:26;2.80;91.60
2042;DHT22;1026;51.460;7.252;2023-03-03T03:21:52;2.80;91.60
2042;DHT22;1026;51.460;7.252;2023-03-03T03:24:18;2.80;91.60
2042;DHT22;1026;51.460;7.252;2023-03-03T03:26:43;2.70;91.60
2042;DHT22;1026;51.460;7.252;2023-03-03T03:29:09;2.80;91.60
2042;DHT22;1026;51.460;7.252;2023-03-03T03:31:35;2.80;91.60
2042;DHT22;1026;51.460;7.252;2023-03-03T03:34:01;2.80;91.60
2042;DHT22;1026;51.460;7.252;2023-03-03T03:36:26;2.80;91.60
2042;DHT22;1026;51.460;7.252;2023-03-03T03:38:52;2.80;91.60
2042;DHT22;1026;51.460;7.252;2023-03-03T03:41:18;2.70;91.60
2042;DHT22;1026;51.460;7.252;2023-03-03T03:43:44;2.80;91.60
2042;DHT22;1026;51.460;7.252;2023-03-03T03:46:10;2.80;91.60
2042;DHT22;1026;51.460;7.252;2023-03-03T03:48:36;2.80;91.60
2042;DHT22;1026;51.460;7.252;2023-03-03T03:51:01;2.80;91.60
2042;DHT22;1026;51.460;7.252;2023-03-03T03:53:27;2.80;91.60
2042;DHT22;1026;51.460;7.252;2023-03-03T03:55:53;2.80;91.60
2042;DHT22;1026;51.460;7.252;2023-03-03T03:58:19;2.80;91.60
2042;DHT22;1026;51.460;7.252;2023-03-03T04:00:45;2.80;91.60
2042;DHT22;1026;51.460;7.252;2023-03-03T04:03:11;2.80;91.60
2042;DHT22;1026;51.460;7.252;2023-03-03T04:05:38;2.70;91.60
2042;DHT22;1026;51.460;7.252;2023-03-03T04:08:04;2.70;91.60
2042;DHT22;1026;51.460;7.252;2023-03-03T04:10:30;2.80;91.60
2042;DHT22;1026;51.460;7.252;2023-03-03T04:12:56;2.80;91.60
2042;DHT22;1026;51.460;7.252;2023-03-03T04:15:22;2.80;91.60
2042;DHT22;1026;51.460;7.252;2023-03-03T04:17:48;2.80;91.60
2042;DHT22;1026;51.460;7.252;2023-03-03T04:20:14;2.80;91.60
2042;DHT22;1026;51.460;7.252;2023-03-03T04:22:41;2.80;91.60
2042;DHT22;1026;51.460;7.252;2023-03-03T04:25:08;2.80;91.60
2042;DHT22;1026;51.460;7.252;2023-03-03T04:27:35;2.80;91.60
2042;DHT22;1026;51.460;7.252;2023-03-03T04:30:02;2.80;91.70
2042;DHT22;1026;51.460;7.252;2023-03-03T04:32:28;2.80;91.70
2042;DHT22;1026;51.460;7.252;2023-03-03T04:34:55;2.80;91.70
2042;DHT22;1026;51.460;7.252;2023-03-03T04:37:20;2.80;91.70
2042;DHT22;1026;51.460;7.252;2023-03-03T04:39:46;2.80;91.70
2042;DHT22;1026;51.460;7.252;2023-03-03T04:42:12;2.80;91.70
2042;DHT22;1026;51.460;7.252;2023-03-03T04:44:38;2.80;91.70
2042;DHT22;1026;51.460;7.252;2023-03-03T04:47:03;2.80;91.70
2042;DHT22;1026;51.460;7.252;2023-03-03T04:49:29;2.80;91.70
2042;DHT22;1026;51.460;7.252;2023-03-03T04:51:55;2.80;91.70
2042;DHT22;1026;51.460;7.252;2023-03-03T04:54:21;2.80;91.70
2042;DHT22;1026;51.460;7.252;2023-03-03T04:56:46;2.80;91.70
2042;DHT22;1026;51.460;7.252;2023-03-03T04:59:12;2.80;91.70
2042;DHT22;1026;51.460;7.252;2023-03-03T05:01:38;2.80;91.70
2042;DHT22;1026;51.460;7.252;2023-03-03T05:04:03;2.80;91.70
2042;DHT22;1026;51.460;7.252;2023-03-03T05:06:29;2.80;91.70
2042;DHT22;1026;51.460;7.252;2023-03-03T05:08:55;2.80;91.70
2042;DHT22;1026;51.460;7.252;2023-03-03T05:11:20;2.70;91.70
2042;DHT22;1026;51.460;7.252;2023-03-03T05:13:46;2.80;91.70
2042;DHT22;1026;51.460;7.252;2023-03-03T05:16:12;2.80;91.70
2042;DHT22;1026;51.460;7.252;2023-03-03T05:18:37;2.70;91.70
2042;DHT22;1026;51.460;7.252;2023-03-03T05:21:03;2.80;91.70
2042;DHT22;1026;51.460;7.252;2023-03-03T05:23:29;2.80;91.70
2042;DHT22;1026;51.460;7.252;2023-03-03T05:25:55;2.80;91.70
2042;DHT22;1026;51.460;7.252;2023-03-03T05:28:21;2.80;91.70
2042;DHT22;1026;51.460;7.252;2023-03-03T05:30:47;2.80;91.80
2042;DHT22;1026;51.460;7.252;2023-03-03T05:33:14;2.60;91.60
2042;DHT22;1026;51.460;7.252;2023-03-03T05:35:40;2.60;91.70
2042;DHT22;1026;51.460;7.252;2023-03-03T05:38:06;2.80;91.70
2042;DHT22;1026;51.460;7.252;2023-03-03T05:40:31;2.80;91.70
2042;DHT22;1026;51.460;7.252;2023-03-03T05:42:57;2.60;91.70
2042;DHT22;1026;51.460;7.252;2023-03-03T05:45:23;2.80;91.80
2042;DHT22;1026;51.460;7.252;2023-03-03T05:47:50;2.80;91.80
2042;DHT22;1026;51.460;7.252;2023-03-03T05:50:22;2.80;91.80
2042;DHT22;1026;51.460;7.252;2023-03-03T05:52:49;2.80;91.80
2042;DHT22;1026;51.460;7.252;2023-03-03T05:55:16;2.70;91.70
2042;DHT22;1026;51.460;7.252;2023-03-03T05:57:42;2.70;91.70
2042;DHT22;1026;51.460;7.252;2023-03-03T06:00:08;2.70;91.70
2042;DHT22;1026;51.460;7.252;2023-03-03T06:02:34;2.60;91.70
2042;DHT22;1026;51.460;7.252;2023-03-03T06:05:00;2.70;91.70
2042;DHT22;1026;51.460;7.252;2023-03-03T06:07:25;2.70;91.70
2042;DHT22;1026;51.460;7.252;2023-03-03T06:09:51;2.70;91.70
2042;DHT22;1026;51.460;7.252;2023-03-03T06:12:17;2.70;91.70
2042;DHT22;1026;51.460;7.252;2023-03-03T06:14:42;2.70;92.00
2042;DHT22;1026;51.460;7.252;2023-03-03T06:17:08;2.70;91.70
2042;DHT22;1026;51.460;7.252;2023-03-03T06:19:35;2.70;91.70
2042;DHT22;1026;51.460;7.252;2023-03-03T06:22:01;2.70;91.70
2042;DHT22;1026;51.460;7.252;2023-03-03T06:24:27;2.70;91.70
2042;DHT22;1026;51.460;7.252;2023-03-03T06:26:55;2.70;92.10
2042;DHT22;1026;51.460;7.252;2023-03-03T06:29:21;2.60;91.70
2042;DHT22;1026;51.460;7.252;2023-03-03T06:31:47;2.70;91.70
2042;DHT22;1026;51.460;7.252;2023-03-03T06:34:12;2.70;91.70
2042;DHT22;1026;51.460;7.252;2023-03-03T06:36:38;2.70;91.70
2042;DHT22;1026;51.460;7.252;2023-03-03T06:39:04;2.70;91.70
2042;DHT22;1026;51.460;7.252;2023-03-03T06:41:29;2.70;91.70
2042;DHT22;1026;51.460;7.252;2023-03-03T06:43:55;2.70;91.70
2042;DHT22;1026;51.460;7.252;2023-03-03T06:46:22;2.70;91.70
2042;DHT22;1026;51.460;7.252;2023-03-03T06:48:48;2.70;91.70
2042;DHT22;1026;51.460;7.252;2023-03-03T06:51:23;2.70;91.70
2042;DHT22;1026;51.460;7.252;2023-03-03T06:53:54;2.70;91.70
2042;DHT22;1026;51.460;7.252;2023-03-03T06:56:23;2.70;91.70
2042;DHT22;1026;51.460;7.252;2023-03-03T06:58:48;2.70;91.70
2042;DHT22;1026;51.460;7.252;2023-03-03T07:01:16;2.70;91.70
2042;DHT22;1026;51.460;7.252;2023-03-03T07:03:42;2.70;91.70
2042;DHT22;1026;51.460;7.252;2023-03-03T07:06:24;2.70;91.70
2042;DHT22;1026;51.460;7.252;2023-03-03T07:08:51;2.70;91.80
2042;DHT22;1026;51.460;7.252;2023-03-03T07:11:20;2.70;91.70
2042;DHT22;1026;51.460;7.252;2023-03-03T07:13:50;2.70;91.70
2042;DHT22;1026;51.460;7.252;2023-03-03T07:16:17;2.70;91.80
2042;DHT22;1026;51.460;7.252;2023-03-03T07:18:49;2.70;91.80
2042;DHT22;1026;51.460;7.252;2023-03-03T07:21:18;2.70;91.70
2042;DHT22;1026;51.460;7.252;2023-03-03T07:23:47;2.70;91.80
2042;DHT22;1026;51.460;7.252;2023-03-03T07:26:17;2.70;91.80
2042;DHT22;1026;51.460;7.252;2023-03-03T07:28:54;2.70;91.80
2042;DHT22;1026;51.460;7.252;2023-03-03T07:31:37;2.70;91.80
2042;DHT22;1026;51.460;7.252;2023-03-03T07:36:46;2.70;91.80
2042;DHT22;1026;51.460;7.252;2023-03-03T07:42:17;2.70;91.80
2042;DHT22;1026;51.460;7.252;2023-03-03T07:44:45;2.70;91.80
2042;DHT22;1026;51.460;7.252;2023-03-03T07:47:17;2.70;91.80
2042;DHT22;1026;51.460;7.252;2023-03-03T07:49:43;2.60;91.70
2042;DHT22;1026;51.460;7.252;2023-03-03T07:54:54;2.70;91.80
2042;DHT22;1026;51.460;7.252;2023-03-03T07:57:27;2.70;91.80
2042;DHT22;1026;51.460;7.252;2023-03-03T08:00:03;2.60;91.70
2042;DHT22;1026;51.460;7.252;2023-03-03T08:02:39;2.70;91.80
2042;DHT22;1026;51.460;7.252;2023-03-03T08:15:45;2.70;92.00
2042;DHT22;1026;51.460;7.252;2023-03-03T08:18:23;2.70;92.30
2042;DHT22;1026;51.460;7.252;2023-03-03T08:20:51;2.60;91.90
2042;DHT22;1026;51.460;7.252;2023-03-03T08:23:18;2.70;91.90
2042;DHT22;1026;51.460;7.252;2023-03-03T08:25:51;2.70;91.90
2042;DHT22;1026;51.460;7.252;2023-03-03T08:28:17;2.60;91.80
2042;DHT22;1026;51.460;7.252;2023-03-03T08:30:44;2.70;91.90
2042;DHT22;1026;51.460;7.252;2023-03-03T08:33:10;2.70;91.90
2042;DHT22;1026;51.460;7.252;2023-03-03T08:35:36;2.70;91.90
2042;DHT22;1026;51.460;7.252;2023-03-03T08:38:02;2.70;91.80
2042;DHT22;1026;51.460;7.252;2023-03-03T08:40:28;2.80;91.90
2042;DHT22;1026;51.460;7.252;2023-03-03T08:42:53;2.80;91.80
2042;DHT22;1026;51.460;7.252;2023-03-03T08:45:19;2.80;91.80
2042;DHT22;1026;51.460;7.252;2023-03-03T08:47:45;2.80;91.80
2042;DHT22;1026;51.460;7.252;2023-03-03T08:50:12;2.80;91.80
2042;DHT22;1026;51.460;7.252;2023-03-03T08:52:37;2.80;91.80
2042;DHT22;1026;51.460;7.252;2023-03-03T08:55:03;2.80;91.80
2042;DHT22;1026;51.460;7.252;2023-03-03T08:57:29;2.80;91.80
2042;DHT22;1026;51.460;7.252;2023-03-03T08:59:55;2.80;91.80
2042;DHT22;1026;51.460;7.252;2023-03-03T09:02:20;2.80;91.80
2042;DHT22;1026;51.460;7.252;2023-03-03T09:04:46;2.80;91.80
2042;DHT22;1026;51.460;7.252;2023-03-03T09:07:12;2.80;91.80
2042;DHT22;1026;51.460;7.252;2023-03-03T09:09:37;2.80;91.80
2042;DHT22;1026;51.460;7.252;2023-03-03T09:12:14;2.80;91.80
2042;DHT22;1026;51.460;7.252;2023-03-03T09:14:41;2.80;91.80
2042;DHT22;1026;51.460;7.252;2023-03-03T09:17:23;2.80;91.80
2042;DHT22;1026;51.460;7.252;2023-03-03T09:19:51;2.80;91.80
2042;DHT22;1026;51.460;7.252;2023-03-03T09:22:22;2.80;91.80
2042;DHT22;1026;51.460;7.252;2023-03-03T09:24:49;2.80;91.80
2042;DHT22;1026;51.460;7.252;2023-03-03T09:29:46;2.80;91.80
2042;DHT22;1026;51.460;7.252;2023-03-03T09:32:33;2.80;91.80
2042;DHT22;1026;51.460;7.252;2023-03-03T09:35:01;2.80;91.80
2042;DHT22;1026;51.460;7.252;2023-03-03T09:37:48;2.80;91.80
2042;DHT22;1026;51.460;7.252;2023-03-03T09:40:45;2.90;91.90
2042;DHT22;1026;51.460;7.252;2023-03-03T09:43:30;2.90;91.80
2042;DHT22;1026;51.460;7.252;2023-03-03T09:46:12;2.90;91.80
2042;DHT22;1026;51.460;7.252;2023-03-03T09:51:43;2.90;91.70
2042;DHT22;1026;51.460;7.252;2023-03-03T09:54:20;2.90;91.80
2042;DHT22;1026;51.460;7.252;2023-03-03T09:57:10;2.90;91.80
2042;DHT22;1026;51.460;7.252;2023-03-03T09:59:49;2.80;91.70
2042;DHT22;1026;51.460;7.252;2023-03-03T10:02:42;2.90;92.10
2042;DHT22;1026;51.460;7.252;2023-03-03T10:05:33;2.90;91.80
2042;DHT22;1026;51.460;7.252;2023-03-03T10:08:23;2.90;91.80
2042;DHT22;1026;51.460;7.252;2023-03-03T10:11:01;2.80;91.80
2042;DHT22;1026;51.460;7.252;2023-03-03T10:13:42;2.90;91.80
2042;DHT22;1026;51.460;7.252;2023-03-03T10:19:02;2.90;91.80
2042;DHT22;1026;51.460;7.252;2023-03-03T10:21:38;2.80;91.80
2042;DHT22;1026;51.460;7.252;2023-03-03T10:24:19;2.90;91.80
2042;DHT22;1026;51.460;7.252;2023-03-03T10:27:14;2.80;91.80
2042;DHT22;1026;51.460;7.252;2023-03-03T10:32:47;3.00;91.90
2042;DHT22;1026;51.460;7.252;2023-03-03T10:35:24;3.00;91.90
2042;DHT22;1026;51.460;7.252;2023-03-03T10:38:15;3.00;91.90
2042;DHT22;1026;51.460;7.252;2023-03-03T10:47:14;3.10;91.90
2042;DHT22;1026;51.460;7.252;2023-03-03T10:52:30;3.00;91.90
2042;DHT22;1026;51.460;7.252;2023-03-03T10:55:17;2.90;91.80
2042;DHT22;1026;51.460;7.252;2023-03-03T11:00:44;3.00;91.80
2042;DHT22;1026;51.460;7.252;2023-03-03T11:03:34;3.00;91.80
2042;DHT22;1026;51.460;7.252;2023-03-03T11:06:25;3.00;91.90
2042;DHT22;1026;51.460;7.252;2023-03-03T11:09:30;3.00;91.80
2042;DHT22;1026;51.460;7.252;2023-03-03T11:17:42;3.10;91.80
2042;DHT22;1026;51.460;7.252;2023-03-03T11:23:05;3.00;91.70
2042;DHT22;1026;51.460;7.252;2023-03-03T11:25:49;3.10;91.70
2042;DHT22;1026;51.460;7.252;2023-03-03T11:31:13;3.10;91.70
2042;DHT22;1026;51.460;7.252;2023-03-03T11:36:43;3.20;91.70
2042;DHT22;1026;51.460;7.252;2023-03-03T11:39:15;3.20;91.70
2042;DHT22;1026;51.460;7.252;2023-03-03T11:42:00;3.20;91.70
2042;DHT22;1026;51.460;7.252;2023-03-03T11:47:33;3.10;91.70
2042;DHT22;1026;51.460;7.252;2023-03-03T11:50:09;3.30;91.70
2042;DHT22;1026;51.460;7.252;2023-03-03T11:52:47;3.30;91.70
2042;DHT22;1026;51.460;7.252;2023-03-03T11:55:26;3.30;91.70
2042;DHT22;1026;51.460;7.252;2023-03-03T11:58:10;3.20;91.60
2042;DHT22;1026;51.460;7.252;2023-03-03T12:03:24;3.40;91.70
2042;DHT22;1026;51.460;7.252;2023-03-03T12:08:42;3.30;91.60
2042;DHT22;1026;51.460;7.252;2023-03-03T12:16:37;3.40;91.60
2042;DHT22;1026;51.460;7.252;2023-03-03T12:24:41;3.50;91.60
2042;DHT22;1026;51.460;7.252;2023-03-03T12:35:14;3.50;91.60
2042;DHT22;1026;51.460;7.252;2023-03-03T12:38:10;3.60;91.60
2042;DHT22;1026;51.460;7.252;2023-03-03T12:40:48;3.50;91.50
2042;DHT22;1026;51.460;7.252;2023-03-03T12:43:24;3.60;91.50
2042;DHT22;1026;51.460;7.252;2023-03-03T12:48:44;3.60;91.50
2042;DHT22;1026;51.460;7.252;2023-03-03T12:51:25;3.60;91.50
2042;DHT22;1026;51.460;7.252;2023-03-03T12:56:54;3.60;91.50
2042;DHT22;1026;51.460;7.252;2023-03-03T13:02:42;3.70;91.40
2042;DHT22;1026;51.460;7.252;2023-03-03T13:05:34;3.70;91.50
2042;DHT22;1026;51.460;7.252;2023-03-03T13:11:50;3.70;91.40
2042;DHT22;1026;51.460;7.252;2023-03-03T13:18:48;3.80;91.30
2042;DHT22;1026;51.460;7.252;2023-03-03T13:25:54;3.80;91.40
2042;DHT22;1026;51.460;7.252;2023-03-03T13:29:26;3.80;91.30
2042;DHT22;1026;51.460;7.252;2023-03-03T13:38:24;3.80;91.30
2042;DHT22;1026;51.460;7.252;2023-03-03T13:41:00;3.80;91.30
2042;DHT22;1026;51.460;7.252;2023-03-03T13:43:35;3.90;91.30
2042;DHT22;1026;51.460;7.252;2023-03-03T13:46:16;3.90;91.30
2042;DHT22;1026;51.460;7.252;2023-03-03T13:51:35;3.90;91.20
2042;DHT22;1026;51.460;7.252;2023-03-03T13:56:55;4.00;91.30
2042;DHT22;1026;51.460;7.252;2023-03-03T14:02:35;4.00;91.20
2042;DHT22;1026;51.460;7.252;2023-03-03T14:05:16;4.00;91.30
2042;DHT22;1026;51.460;7.252;2023-03-03T14:07:58;4.00;91.20
2042;DHT22;1026;51.460;7.252;2023-03-03T14:10:29;4.00;91.20
2042;DHT22;1026;51.460;7.252;2023-03-03T14:13:03;4.00;91.30
2042;DHT22;1026;51.460;7.252;2023-03-03T14:15:32;4.00;91.20
2042;DHT22;1026;51.460;7.252;2023-03-03T14:18:27;4.00;91.20
2042;DHT22;1026;51.460;7.252;2023-03-03T14:20:59;4.10;91.30
2042;DHT22;1026;51.460;7.252;2023-03-03T14:23:47;4.10;91.20
2042;DHT22;1026;51.460;7.252;2023-03-03T14:26:14;4.10;91.20
2042;DHT22;1026;51.460;7.252;2023-03-03T14:28:43;4.10;91.20
2042;DHT22;1026;51.460;7.252;2023-03-03T14:31:25;4.10;91.20
2042;DHT22;1026;51.460;7.252;2023-03-03T14:34:08;4.10;91.20
2042;DHT22;1026;51.460;7.252;2023-03-03T14:36:41;4.10;91.20
2042;DHT22;1026;51.460;7.252;2023-03-03T14:39:31;4.10;91.20
2042;DHT22;1026;51.460;7.252;2023-03-03T14:41:58;4.20;91.20
2042;DHT22;1026;51.460;7.252;2023-03-03T14:44:28;4.20;91.20
2042;DHT22;1026;51.460;7.252;2023-03-03T14:49:33;4.20;91.20
2042;DHT22;1026;51.460;7.252;2023-03-03T14:52:04;4.20;91.20
2042;DHT22;1026;51.460;7.252;2023-03-03T14:54:38;4.20;91.20
2042;DHT22;1026;51.460;7.252;2023-03-03T14:59:36;4.20;91.20
2042;DHT22;1026;51.460;7.252;2023-03-03T15:04:45;4.20;91.20
2042;DHT22;1026;51.460;7.252;2023-03-03T15:07:34;4.20;91.20
2042;DHT22;1026;51.460;7.252;2023-03-03T15:10:01;4.30;91.20
2042;DHT22;1026;51.460;7.252;2023-03-03T15:12:36;4.20;91.20
2042;DHT22;1026;51.460;7.252;2023-03-03T15:17:34;4.20;91.20
2042;DHT22;1026;51.460;7.252;2023-03-03T15:20:03;4.30;91.20
2042;DHT22;1026;51.460;7.252;2023-03-03T15:25:36;4.30;91.20
2042;DHT22;1026;51.460;7.252;2023-03-03T15:28:31;4.30;91.30
2042;DHT22;1026;51.460;7.252;2023-03-03T15:31:04;4.20;91.20
2042;DHT22;1026;51.460;7.252;2023-03-03T15:33:52;4.30;91.30
2042;DHT22;1026;51.460;7.252;2023-03-03T15:36:45;4.30;91.60
2042;DHT22;1026;51.460;7.252;2023-03-03T15:39:32;4.20;91.20
2042;DHT22;1026;51.460;7.252;2023-03-03T15:42:06;4.30;91.30
2042;DHT22;1026;51.460;7.252;2023-03-03T16:01:11;4.30;91.30
2042;DHT22;1026;51.460;7.252;2023-03-03T16:03:54;4.30;91.30
2042;DHT22;1026;51.460;7.252;2023-03-03T16:09:06;4.10;91.30
2042;DHT22;1026;51.460;7.252;2023-03-03T16:11:43;4.30;91.40
2042;DHT22;1026;51.460;7.252;2023-03-03T16:14:43;4.30;91.40
2042;DHT22;1026;51.460;7.252;2023-03-03T16:20:00;4.30;91.20
2042;DHT22;1026;51.460;7.252;2023-03-03T16:25:37;4.30;91.30
2042;DHT22;1026;51.460;7.252;2023-03-03T16:28:09;4.30;91.30
2042;DHT22;1026;51.460;7.252;2023-03-03T16:30:48;4.30;91.30
2042;DHT22;1026;51.460;7.252;2023-03-03T16:36:12;4.30;91.30
2042;DHT22;1026;51.460;7.252;2023-03-03T16:38:49;4.20;91.30
2042;DHT22;1026;51.460;7.252;2023-03-03T16:41:28;4.30;91.40
2042;DHT22;1026;51.460;7.252;2023-03-03T16:46:44;4.30;91.40
2042;DHT22;1026;51.460;7.252;2023-03-03T16:54:54;4.30;91.40
2042;DHT22;1026;51.460;7.252;2023-03-03T17:02:57;4.30;91.40
2042;DHT22;1026;51.460;7.252;2023-03-03T17:05:43;4.30;91.40
2042;DHT22;1026;51.460;7.252;2023-03-03T17:08:31;4.20;91.40
2042;DHT22;1026;51.460;7.252;2023-03-03T17:14:18;4.30;91.50
2042;DHT22;1026;51.460;7.252;2023-03-03T17:16:56;4.20;91.40
2042;DHT22;1026;51.460;7.252;2023-03-03T17:22:17;4.20;91.40
2042;DHT22;1026;51.460;7.252;2023-03-03T17:24:53;4.20;91.40
2042;DHT22;1026;51.460;7.252;2023-03-03T17:30:05;4.30;91.40
2042;DHT22;1026;51.460;7.252;2023-03-03T17:32:54;4.30;91.40
2042;DHT22;1026;51.460;7.252;2023-03-03T17:35:32;4.30;91.70
2042;DHT22;1026;51.460;7.252;2023-03-03T17:43:33;4.20;91.40
2042;DHT22;1026;51.460;7.252;2023-03-03T17:46:03;4.20;91.40
2042;DHT22;1026;51.460;7.252;2023-03-03T17:51:41;4.20;91.40
2042;DHT22;1026;51.460;7.252;2023-03-03T17:56:36;4.20;91.50
2042;DHT22;1026;51.460;7.252;2023-03-03T17:59:11;4.20;91.50
2042;DHT22;1026;51.460;7.252;2023-03-03T18:05:24;4.10;91.50
2042;DHT22;1026;51.460;7.252;2023-03-03T18:18:55;4.10;91.50
2042;DHT22;1026;51.460;7.252;2023-03-03T18:27:22;4.00;91.50
2042;DHT22;1026;51.460;7.252;2023-03-03T18:33:10;4.00;91.60
2042;DHT22;1026;51.460;7.252;2023-03-03T18:35:39;4.00;91.60
2042;DHT22;1026;51.460;7.252;2023-03-03T18:38:23;4.00;91.60
2042;DHT22;1026;51.460;7.252;2023-03-03T18:40:57;4.00;91.60
2042;DHT22;1026;51.460;7.252;2023-03-03T18:46:04;3.90;91.70
2042;DHT22;1026;51.460;7.252;2023-03-03T18:48:50;3.90;91.70
2042;DHT22;1026;51.460;7.252;2023-03-03T18:51:47;3.90;91.70
2042;DHT22;1026;51.460;7.252;2023-03-03T18:56:45;3.80;91.70
2042;DHT22;1026;51.460;7.252;2023-03-03T19:04:42;3.90;91.80
2042;DHT22;1026;51.460;7.252;2023-03-03T19:07:15;3.90;91.80
2042;DHT22;1026;51.460;7.252;2023-03-03T19:12:10;3.80;91.80
2042;DHT22;1026;51.460;7.252;2023-03-03T19:14:40;3.80;92.10
2042;DHT22;1026;51.460;7.252;2023-03-03T19:17:42;3.80;91.80
2042;DHT22;1026;51.460;7.252;2023-03-03T19:20:14;3.90;91.80
2042;DHT22;1026;51.460;7.252;2023-03-03T19:23:05;3.80;91.80
2042;DHT22;1026;51.460;7.252;2023-03-03T19:25:33;3.80;91.80
2042;DHT22;1026;51.460;7.252;2023-03-03T19:30:55;3.80;91.80
2042;DHT22;1026;51.460;7.252;2023-03-03T19:33:41;3.80;91.80
2042;DHT22;1026;51.460;7.252;2023-03-03T19:38:58;3.80;91.80
2042;DHT22;1026;51.460;7.252;2023-03-03T19:50:29;3.80;91.90
2042;DHT22;1026;51.460;7.252;2023-03-03T19:53:14;3.80;91.90
2042;DHT22;1026;51.460;7.252;2023-03-03T20:01:43;3.80;91.90
2042;DHT22;1026;51.460;7.252;2023-03-03T20:09:57;3.80;91.90
2042;DHT22;1026;51.460;7.252;2023-03-03T20:12:48;3.80;91.90
2042;DHT22;1026;51.460;7.252;2023-03-03T20:15:22;3.80;92.00
2042;DHT22;1026;51.460;7.252;2023-03-03T20:20:44;3.80;92.00
2042;DHT22;1026;51.460;7.252;2023-03-03T20:23:29;3.80;92.00
2042;DHT22;1026;51.460;7.252;2023-03-03T20:26:15;3.80;92.00
2042;DHT22;1026;51.460;7.252;2023-03-03T20:31:57;3.80;92.00
2042;DHT22;1026;51.460;7.252;2023-03-03T20:37:11;3.80;92.00
2042;DHT22;1026;51.460;7.252;2023-03-03T20:42:37;3.80;92.00
2042;DHT22;1026;51.460;7.252;2023-03-03T20:45:09;3.80;92.00
2042;DHT22;1026;51.460;7.252;2023-03-03T20:50:46;3.80;92.00
2042;DHT22;1026;51.460;7.252;2023-03-03T20:55:58;3.80;92.00
2042;DHT22;1026;51.460;7.252;2023-03-03T20:58:30;3.80;92.00
2042;DHT22;1026;51.460;7.252;2023-03-03T21:01:19;3.80;92.00
2042;DHT22;1026;51.460;7.252;2023-03-03T21:03:48;3.80;92.00
2042;DHT22;1026;51.460;7.252;2023-03-03T21:06:15;3.80;92.00
2042;DHT22;1026;51.460;7.252;2023-03-03T21:08:51;3.80;92.00
2042;DHT22;1026;51.460;7.252;2023-03-03T21:11:20;3.80;92.00
2042;DHT22;1026;51.460;7.252;2023-03-03T21:13:48;3.70;92.00
2042;DHT22;1026;51.460;7.252;2023-03-03T21:16:34;3.80;92.00
2042;DHT22;1026;51.460;7.252;2023-03-03T21:21:32;3.80;92.00
2042;DHT22;1026;51.460;7.252;2023-03-03T21:23:58;3.80;92.00
2042;DHT22;1026;51.460;7.252;2023-03-03T21:26:45;3.80;92.00
2042;DHT22;1026;51.460;7.252;2023-03-03T21:32:03;3.80;92.10
2042;DHT22;1026;51.460;7.252;2023-03-03T21:34:34;3.80;92.00
2042;DHT22;1026;51.460;7.252;2023-03-03T21:37:03;3.80;92.10
2042;DHT22;1026;51.460;7.252;2023-03-03T21:42:02;3.80;92.10
2042;DHT22;1026;51.460;7.252;2023-03-03T21:47:21;3.80;92.10
2042;DHT22;1026;51.460;7.252;2023-03-03T21:49:49;3.80;92.00
2042;DHT22;1026;51.460;7.252;2023-03-03T21:52:17;3.80;92.00